sensor_id;sensor_type;location;lat;lon;timestamp;P1;durP1;ratioP1;P2;durP2;ratioP2
29162;SDS011;20331;53.144;8.208;2024-01-30T00:04:35;17.08;;;12.07;;
29162;SDS011;20331;53.144;8.208;2024-01-30T00:09:57;24.63;;;13.07;;
29162;SDS011;20331;53.144;8.208;2024-01-30T00:15:18;20.10;;;12.60;;
29162;SDS011;20331;53.144;8.208;2024-01-30T00:20:40;20.05;;;13.18;;
29162;SDS011;20331;53.144;8.208;2024-01-30T00:26:02;20.98;;;12.38;;
29162;SDS011;20331;53.144;8.208;2024-01-30T00:31:24;19.80;;;12.65;;
29162;SDS011;20331;53.144;8.208;2024-01-30T00:36:46;19.38;;;12.38;;
29162;SDS011;20331;53.144;8.208;2024-01-30T00:42:08;20.67;;;13.13;;
29162;SDS011;20331;53.144;8.208;2024-01-30T00:47:29;21.25;;;13.55;;
29162;SDS011;20331;53.144;8.208;2024-01-30T00:52:51;22.67;;;13.15;;
29162;SDS011;20331;53.144;8.208;2024-01-30T00:58:12;17.25;;;12.35;;
29162;SDS011;20331;53.144;8.208;2024-01-30T01:03:34;21.60;;;12.48;;
29162;SDS011;20331;53.144;8.208;2024-01-30T01:08:56;19.27;;;13.07;;
29162;SDS011;20331;53.144;8.208;2024-01-30T01:14:18;17.33;;;12.95;;
29162;SDS011;20331;53.144;8.208;2024-01-30T01:19:39;19.17;;;13.00;;
29162;SDS011;20331;53.144;8.208;2024-01-30T01:25:01;19.30;;;12.15;;
29162;SDS011;20331;53.144;8.208;2024-01-30T01:30:23;20.15;;;12.75;;
29162;SDS011;20331;53.144;8.208;2024-01-30T01:35:45;17.90;;;12.35;;
29162;SDS011;20331;53.144;8.208;2024-01-30T01:41:06;16.50;;;11.65;;
29162;SDS011;20331;53.144;8.208;2024-01-30T01:46:29;20.70;;;12.35;;
29162;SDS011;20331;53.144;8.208;2024-01-30T01:51:54;17.80;;;12.30;;
29162;SDS011;20331;53.144;8.208;2024-01-30T02:02:42;20.10;;;12.25;;
29162;SDS011;20331;53.144;8.208;2024-01-30T02:08:06;18.63;;;11.93;;
29162;SDS011;20331;53.144;8.208;2024-01-30T02:13:30;20.38;;;12.93;;
29162;SDS011;20331;53.144;8.208;2024-01-30T02:18:51;20.08;;;12.82;;
29162;SDS011;20331;53.144;8.208;2024-01-30T02:24:13;20.90;;;13.18;;
29162;SDS011;20331;53.144;8.208;2024-01-30T02:29:35;18.30;;;12.02;;
29162;SDS011;20331;53.144;8.208;2024-01-30T02:34:57;19.67;;;12.75;;
29162;SDS011;20331;53.144;8.208;2024-01-30T02:40:21;19.10;;;12.32;;
29162;SDS011;20331;53.144;8.208;2024-01-30T02:45:43;18.70;;;12.38;;
29162;SDS011;20331;53.144;8.208;2024-01-30T02:51:04;20.30;;;13.02;;
29162;SDS011;20331;53.144;8.208;2024-01-30T02:56:27;18.05;;;12.02;;
29162;SDS011;20331;53.144;8.208;2024-01-30T03:01:48;17.58;;;11.88;;
29162;SDS011;20331;53.144;8.208;2024-01-30T03:07:10;17.88;;;12.23;;
29162;SDS011;20331;53.144;8.208;2024-01-30T03:12:32;18.50;;;13.00;;
29162;SDS011;20331;53.144;8.208;2024-01-30T03:17:54;17.65;;;11.98;;
29162;SDS011;20331;53.144;8.208;2024-01-30T03:23:16;20.73;;;13.10;;
29162;SDS011;20331;53.144;8.208;2024-01-30T03:28:38;20.42;;;12.52;;
29162;SDS011;20331;53.144;8.208;2024-01-30T03:33:59;18.48;;;11.98;;
29162;SDS011;20331;53.144;8.208;2024-01-30T03:39:22;18.70;;;12.65;;
29162;SDS011;20331;53.144;8.208;2024-01-30T03:44:44;18.15;;;12.75;;
29162;SDS011;20331;53.144;8.208;2024-01-30T03:50:06;18.25;;;12.48;;
29162;SDS011;20331;53.144;8.208;2024-01-30T03:55:28;17.15;;;12.52;;
29162;SDS011;20331;53.144;8.208;2024-01-30T04:00:50;20.60;;;12.80;;
29162;SDS011;20331;53.144;8.208;2024-01-30T04:06:14;17.27;;;11.70;;
29162;SDS011;20331;53.144;8.208;2024-01-30T04:11:36;22.77;;;12.10;;
29162;SDS011;20331;53.144;8.208;2024-01-30T04:16:58;19.55;;;12.65;;
29162;SDS011;20331;53.144;8.208;2024-01-30T04:22:19;17.13;;;12.02;;
29162;SDS011;20331;53.144;8.208;2024-01-30T04:27:41;20.17;;;12.77;;
29162;SDS011;20331;53.144;8.208;2024-01-30T04:33:03;17.55;;;12.38;;
29162;SDS011;20331;53.144;8.208;2024-01-30T04:38:25;20.40;;;12.60;;
29162;SDS011;20331;53.144;8.208;2024-01-30T04:43:47;19.20;;;13.60;;
29162;SDS011;20331;53.144;8.208;2024-01-30T04:49:27;18.80;;;13.45;;
29162;SDS011;20331;53.144;8.208;2024-01-30T04:54:50;19.90;;;12.73;;
29162;SDS011;20331;53.144;8.208;2024-01-30T05:00:12;20.92;;;12.60;;
29162;SDS011;20331;53.144;8.208;2024-01-30T05:05:34;16.92;;;12.55;;
29162;SDS011;20331;53.144;8.208;2024-01-30T05:10:56;21.05;;;13.00;;
29162;SDS011;20331;53.144;8.208;2024-01-30T05:16:18;23.17;;;12.80;;
29162;SDS011;20331;53.144;8.208;2024-01-30T05:21:39;17.63;;;12.45;;
29162;SDS011;20331;53.144;8.208;2024-01-30T05:27:02;19.02;;;12.88;;
29162;SDS011;20331;53.144;8.208;2024-01-30T05:32:24;26.55;;;12.90;;
29162;SDS011;20331;53.144;8.208;2024-01-30T05:37:45;17.98;;;11.98;;
29162;SDS011;20331;53.144;8.208;2024-01-30T05:43:07;18.50;;;12.25;;
29162;SDS011;20331;53.144;8.208;2024-01-30T05:48:29;21.42;;;13.05;;
29162;SDS011;20331;53.144;8.208;2024-01-30T05:53:51;17.77;;;12.63;;
29162;SDS011;20331;53.144;8.208;2024-01-30T05:59:12;18.25;;;12.30;;
29162;SDS011;20331;53.144;8.208;2024-01-30T06:04:34;16.92;;;12.18;;
29162;SDS011;20331;53.144;8.208;2024-01-30T06:09:56;17.40;;;12.32;;
29162;SDS011;20331;53.144;8.208;2024-01-30T06:15:18;18.02;;;12.73;;
29162;SDS011;20331;53.144;8.208;2024-01-30T06:20:40;18.23;;;12.40;;
29162;SDS011;20331;53.144;8.208;2024-01-30T06:26:01;19.02;;;11.98;;
29162;SDS011;20331;53.144;8.208;2024-01-30T06:31:23;18.52;;;12.75;;
29162;SDS011;20331;53.144;8.208;2024-01-30T06:36:45;18.13;;;13.13;;
29162;SDS011;20331;53.144;8.208;2024-01-30T06:42:07;22.02;;;12.23;;
29162;SDS011;20331;53.144;8.208;2024-01-30T06:47:29;20.40;;;12.93;;
29162;SDS011;20331;53.144;8.208;2024-01-30T06:52:52;16.65;;;12.15;;
29162;SDS011;20331;53.144;8.208;2024-01-30T06:58:14;18.55;;;12.90;;
29162;SDS011;20331;53.144;8.208;2024-01-30T07:03:36;21.20;;;11.93;;
29162;SDS011;20331;53.144;8.208;2024-01-30T07:08:57;20.65;;;12.73;;
29162;SDS011;20331;53.144;8.208;2024-01-30T07:14:19;17.35;;;12.88;;
29162;SDS011;20331;53.144;8.208;2024-01-30T07:19:41;18.55;;;12.48;;
29162;SDS011;20331;53.144;8.208;2024-01-30T07:25:02;21.90;;;13.40;;
29162;SDS011;20331;53.144;8.208;2024-01-30T07:30:25;20.40;;;12.60;;
29162;SDS011;20331;53.144;8.208;2024-01-30T07:35:46;21.35;;;12.73;;
29162;SDS011;20331;53.144;8.208;2024-01-30T07:41:08;19.83;;;12.88;;
29162;SDS011;20331;53.144;8.208;2024-01-30T07:46:30;19.60;;;12.45;;
29162;SDS011;20331;53.144;8.208;2024-01-30T07:51:52;23.05;;;12.93;;
29162;SDS011;20331;53.144;8.208;2024-01-30T07:57:14;21.27;;;12.35;;
29162;SDS011;20331;53.144;8.208;2024-01-30T08:02:35;20.50;;;12.57;;
29162;SDS011;20331;53.144;8.208;2024-01-30T08:07:57;24.40;;;13.30;;
29162;SDS011;20331;53.144;8.208;2024-01-30T08:13:19;17.80;;;11.80;;
29162;SDS011;20331;53.144;8.208;2024-01-30T08:18:40;23.20;;;13.85;;
29162;SDS011;20331;53.144;8.208;2024-01-30T08:24:03;20.00;;;12.30;;
29162;SDS011;20331;53.144;8.208;2024-01-30T08:29:26;18.23;;;12.68;;
29162;SDS011;20331;53.144;8.208;2024-01-30T08:34:47;18.40;;;12.52;;
29162;SDS011;20331;53.144;8.208;2024-01-30T08:40:09;19.33;;;11.90;;
29162;SDS011;20331;53.144;8.208;2024-01-30T08:45:31;17.88;;;11.35;;
29162;SDS011;20331;53.144;8.208;2024-01-30T08:50:53;16.67;;;11.65;;
29162;SDS011;20331;53.144;8.208;2024-01-30T08:56:15;14.82;;;10.65;;
29162;SDS011;20331;53.144;8.208;2024-01-30T09:01:37;21.45;;;10.90;;
29162;SDS011;20331;53.144;8.208;2024-01-30T09:07:02;17.33;;;11.25;;
29162;SDS011;20331;53.144;8.208;2024-01-30T09:12:26;16.70;;;10.35;;
29162;SDS011;20331;53.144;8.208;2024-01-30T09:17:48;15.27;;;9.85;;
29162;SDS011;20331;53.144;8.208;2024-01-30T09:23:10;15.73;;;9.63;;
29162;SDS011;20331;53.144;8.208;2024-01-30T09:28:32;17.98;;;10.82;;
29162;SDS011;20331;53.144;8.208;2024-01-30T09:33:54;15.35;;;9.70;;
29162;SDS011;20331;53.144;8.208;2024-01-30T09:39:16;15.82;;;10.38;;
29162;SDS011;20331;53.144;8.208;2024-01-30T09:44:38;15.27;;;10.07;;
29162;SDS011;20331;53.144;8.208;2024-01-30T09:50:04;16.52;;;9.32;;
29162;SDS011;20331;53.144;8.208;2024-01-30T09:55:27;16.10;;;9.70;;
29162;SDS011;20331;53.144;8.208;2024-01-30T10:00:49;16.80;;;9.77;;
29162;SDS011;20331;53.144;8.208;2024-01-30T10:06:11;14.88;;;9.48;;
29162;SDS011;20331;53.144;8.208;2024-01-30T10:11:33;15.13;;;9.65;;
29162;SDS011;20331;53.144;8.208;2024-01-30T10:16:55;14.63;;;8.80;;
29162;SDS011;20331;53.144;8.208;2024-01-30T10:22:18;17.77;;;9.68;;
29162;SDS011;20331;53.144;8.208;2024-01-30T10:27:41;14.18;;;9.60;;
29162;SDS011;20331;53.144;8.208;2024-01-30T10:33:02;12.40;;;8.65;;
29162;SDS011;20331;53.144;8.208;2024-01-30T10:38:24;18.27;;;9.38;;
29162;SDS011;20331;53.144;8.208;2024-01-30T10:43:52;15.70;;;9.80;;
29162;SDS011;20331;53.144;8.208;2024-01-30T10:49:23;16.08;;;9.73;;
29162;SDS011;20331;53.144;8.208;2024-01-30T10:54:46;15.85;;;9.02;;
29162;SDS011;20331;53.144;8.208;2024-01-30T11:00:09;13.60;;;8.50;;
29162;SDS011;20331;53.144;8.208;2024-01-30T11:05:33;13.38;;;8.60;;
29162;SDS011;20331;53.144;8.208;2024-01-30T11:10:58;19.30;;;9.18;;
29162;SDS011;20331;53.144;8.208;2024-01-30T11:16:20;15.55;;;9.35;;
29162;SDS011;20331;53.144;8.208;2024-01-30T11:21:42;13.60;;;8.25;;
29162;SDS011;20331;53.144;8.208;2024-01-30T11:27:07;14.00;;;9.25;;
29162;SDS011;20331;53.144;8.208;2024-01-30T11:32:30;14.45;;;8.60;;
29162;SDS011;20331;53.144;8.208;2024-01-30T11:37:52;17.80;;;8.65;;
29162;SDS011;20331;53.144;8.208;2024-01-30T11:43:15;15.45;;;8.32;;
29162;SDS011;20331;53.144;8.208;2024-01-30T11:48:39;14.27;;;8.45;;
29162;SDS011;20331;53.144;8.208;2024-01-30T11:54:00;15.23;;;8.63;;
29162;SDS011;20331;53.144;8.208;2024-01-30T11:59:22;22.73;;;9.10;;
29162;SDS011;20331;53.144;8.208;2024-01-30T12:04:44;16.60;;;8.10;;
29162;SDS011;20331;53.144;8.208;2024-01-30T12:10:06;16.48;;;8.93;;
29162;SDS011;20331;53.144;8.208;2024-01-30T12:15:31;12.83;;;8.47;;
29162;SDS011;20331;53.144;8.208;2024-01-30T12:20:58;16.35;;;9.20;;
29162;SDS011;20331;53.144;8.208;2024-01-30T12:26:21;14.88;;;9.35;;
29162;SDS011;20331;53.144;8.208;2024-01-30T12:31:43;17.73;;;8.90;;
29162;SDS011;20331;53.144;8.208;2024-01-30T12:37:05;14.20;;;8.75;;
29162;SDS011;20331;53.144;8.208;2024-01-30T12:42:28;17.50;;;9.15;;
29162;SDS011;20331;53.144;8.208;2024-01-30T12:47:50;14.18;;;8.55;;
29162;SDS011;20331;53.144;8.208;2024-01-30T12:53:13;15.88;;;9.10;;
29162;SDS011;20331;53.144;8.208;2024-01-30T12:58:34;17.90;;;9.43;;
29162;SDS011;20331;53.144;8.208;2024-01-30T13:03:56;19.10;;;8.43;;
29162;SDS011;20331;53.144;8.208;2024-01-30T13:09:20;16.17;;;8.60;;
29162;SDS011;20331;53.144;8.208;2024-01-30T13:14:42;15.88;;;8.93;;
29162;SDS011;20331;53.144;8.208;2024-01-30T13:20:04;15.60;;;8.77;;
29162;SDS011;20331;53.144;8.208;2024-01-30T13:25:32;19.13;;;9.30;;
29162;SDS011;20331;53.144;8.208;2024-01-30T13:30:54;21.08;;;8.75;;
29162;SDS011;20331;53.144;8.208;2024-01-30T13:36:16;12.57;;;9.05;;
29162;SDS011;20331;53.144;8.208;2024-01-30T13:41:38;14.10;;;9.20;;
29162;SDS011;20331;53.144;8.208;2024-01-30T13:47:00;17.23;;;8.93;;
29162;SDS011;20331;53.144;8.208;2024-01-30T13:52:21;14.18;;;8.55;;
29162;SDS011;20331;53.144;8.208;2024-01-30T13:57:51;12.00;;;8.00;;
29162;SDS011;20331;53.144;8.208;2024-01-30T14:03:13;16.00;;;8.50;;
29162;SDS011;20331;53.144;8.208;2024-01-30T14:08:35;16.40;;;8.38;;
29162;SDS011;20331;53.144;8.208;2024-01-30T14:13:57;15.30;;;8.65;;
29162;SDS011;20331;53.144;8.208;2024-01-30T14:19:19;14.57;;;8.05;;
29162;SDS011;20331;53.144;8.208;2024-01-30T14:24:41;13.32;;;7.90;;
29162;SDS011;20331;53.144;8.208;2024-01-30T14:30:02;12.25;;;7.57;;
29162;SDS011;20331;53.144;8.208;2024-01-30T14:35:24;17.65;;;8.13;;
29162;SDS011;20331;53.144;8.208;2024-01-30T14:40:46;17.90;;;8.65;;
29162;SDS011;20331;53.144;8.208;2024-01-30T14:46:08;15.35;;;8.25;;
29162;SDS011;20331;53.144;8.208;2024-01-30T14:51:30;15.38;;;8.18;;
29162;SDS011;20331;53.144;8.208;2024-01-30T14:56:51;16.35;;;8.38;;
29162;SDS011;20331;53.144;8.208;2024-01-30T15:02:14;15.30;;;8.05;;
29162;SDS011;20331;53.144;8.208;2024-01-30T15:07:36;14.77;;;8.52;;
29162;SDS011;20331;53.144;8.208;2024-01-30T15:13:01;15.98;;;8.05;;
29162;SDS011;20331;53.144;8.208;2024-01-30T15:18:23;18.00;;;8.07;;
29162;SDS011;20331;53.144;8.208;2024-01-30T15:23:44;18.52;;;7.80;;
29162;SDS011;20331;53.144;8.208;2024-01-30T15:29:06;11.80;;;6.97;;
29162;SDS011;20331;53.144;8.208;2024-01-30T15:34:28;11.73;;;5.50;;
29162;SDS011;20331;53.144;8.208;2024-01-30T15:39:49;12.48;;;4.70;;
29162;SDS011;20331;53.144;8.208;2024-01-30T15:45:11;11.40;;;4.30;;
29162;SDS011;20331;53.144;8.208;2024-01-30T15:50:33;7.35;;;3.90;;
29162;SDS011;20331;53.144;8.208;2024-01-30T15:55:54;8.25;;;3.67;;
29162;SDS011;20331;53.144;8.208;2024-01-30T16:01:16;8.80;;;3.60;;
29162;SDS011;20331;53.144;8.208;2024-01-30T16:06:38;10.00;;;3.10;;
29162;SDS011;20331;53.144;8.208;2024-01-30T16:12:00;7.95;;;3.05;;
29162;SDS011;20331;53.144;8.208;2024-01-30T16:17:22;8.07;;;2.78;;
29162;SDS011;20331;53.144;8.208;2024-01-30T16:22:43;5.07;;;2.35;;
29162;SDS011;20331;53.144;8.208;2024-01-30T16:28:06;4.55;;;2.17;;
29162;SDS011;20331;53.144;8.208;2024-01-30T16:33:28;3.13;;;2.28;;
29162;SDS011;20331;53.144;8.208;2024-01-30T16:38:51;3.80;;;2.03;;
29162;SDS011;20331;53.144;8.208;2024-01-30T16:44:12;3.72;;;1.67;;
29162;SDS011;20331;53.144;8.208;2024-01-30T16:49:35;4.40;;;1.80;;
29162;SDS011;20331;53.144;8.208;2024-01-30T16:54:56;5.43;;;2.35;;
29162;SDS011;20331;53.144;8.208;2024-01-30T17:00:18;6.70;;;2.20;;
29162;SDS011;20331;53.144;8.208;2024-01-30T17:05:40;5.63;;;2.50;;
29162;SDS011;20331;53.144;8.208;2024-01-30T17:11:02;5.05;;;2.20;;
29162;SDS011;20331;53.144;8.208;2024-01-30T17:16:24;4.40;;;1.80;;
29162;SDS011;20331;53.144;8.208;2024-01-30T17:21:46;4.00;;;1.70;;
29162;SDS011;20331;53.144;8.208;2024-01-30T17:27:10;2.67;;;1.83;;
29162;SDS011;20331;53.144;8.208;2024-01-30T17:32:34;2.25;;;1.88;;
29162;SDS011;20331;53.144;8.208;2024-01-30T17:37:56;6.10;;;2.20;;
29162;SDS011;20331;53.144;8.208;2024-01-30T17:43:18;4.95;;;2.65;;
29162;SDS011;20331;53.144;8.208;2024-01-30T17:48:39;3.47;;;2.58;;
29162;SDS011;20331;53.144;8.208;2024-01-30T17:54:01;4.78;;;3.15;;
29162;SDS011;20331;53.144;8.208;2024-01-30T17:59:22;4.90;;;3.88;;
29162;SDS011;20331;53.144;8.208;2024-01-30T18:04:44;5.05;;;3.92;;
29162;SDS011;20331;53.144;8.208;2024-01-30T18:10:06;4.72;;;3.85;;
29162;SDS011;20331;53.144;8.208;2024-01-30T18:15:29;6.05;;;4.47;;
29162;SDS011;20331;53.144;8.208;2024-01-30T18:20:51;7.88;;;4.70;;
29162;SDS011;20331;53.144;8.208;2024-01-30T18:26:13;6.97;;;4.90;;
29162;SDS011;20331;53.144;8.208;2024-01-30T18:31:37;6.15;;;4.82;;
29162;SDS011;20331;53.144;8.208;2024-01-30T18:37:02;5.80;;;4.78;;
29162;SDS011;20331;53.144;8.208;2024-01-30T18:42:25;5.63;;;4.95;;
29162;SDS011;20331;53.144;8.208;2024-01-30T18:47:47;5.93;;;4.57;;
29162;SDS011;20331;53.144;8.208;2024-01-30T18:53:09;5.25;;;4.75;;
29162;SDS011;20331;53.144;8.208;2024-01-30T18:58:30;7.28;;;5.05;;
29162;SDS011;20331;53.144;8.208;2024-01-30T19:03:52;5.70;;;4.38;;
29162;SDS011;20331;53.144;8.208;2024-01-30T19:09:15;5.53;;;4.10;;
29162;SDS011;20331;53.144;8.208;2024-01-30T19:14:37;7.43;;;4.45;;
29162;SDS011;20331;53.144;8.208;2024-01-30T19:19:59;8.38;;;4.53;;
29162;SDS011;20331;53.144;8.208;2024-01-30T19:25:20;4.68;;;4.03;;
29162;SDS011;20331;53.144;8.208;2024-01-30T19:30:42;6.00;;;4.32;;
29162;SDS011;20331;53.144;8.208;2024-01-30T19:36:04;5.72;;;4.63;;
29162;SDS011;20331;53.144;8.208;2024-01-30T19:41:26;4.75;;;3.67;;
29162;SDS011;20331;53.144;8.208;2024-01-30T19:46:48;4.03;;;3.08;;
29162;SDS011;20331;53.144;8.208;2024-01-30T19:52:10;3.47;;;2.65;;
29162;SDS011;20331;53.144;8.208;2024-01-30T19:57:31;4.38;;;3.00;;
29162;SDS011;20331;53.144;8.208;2024-01-30T20:02:53;5.45;;;3.17;;
29162;SDS011;20331;53.144;8.208;2024-01-30T20:08:15;4.15;;;2.70;;
29162;SDS011;20331;53.144;8.208;2024-01-30T20:13:37;7.78;;;2.05;;
29162;SDS011;20331;53.144;8.208;2024-01-30T20:19:01;5.60;;;2.00;;
29162;SDS011;20331;53.144;8.208;2024-01-30T20:24:23;4.07;;;2.17;;
29162;SDS011;20331;53.144;8.208;2024-01-30T20:29:45;5.75;;;2.40;;
29162;SDS011;20331;53.144;8.208;2024-01-30T20:35:07;3.70;;;1.80;;
29162;SDS011;20331;53.144;8.208;2024-01-30T20:40:29;5.97;;;1.83;;
29162;SDS011;20331;53.144;8.208;2024-01-30T20:45:51;6.10;;;1.85;;
29162;SDS011;20331;53.144;8.208;2024-01-30T20:51:12;6.55;;;2.30;;
29162;SDS011;20331;53.144;8.208;2024-01-30T20:56:35;4.28;;;1.63;;
29162;SDS011;20331;53.144;8.208;2024-01-30T21:01:56;8.60;;;2.00;;
29162;SDS011;20331;53.144;8.208;2024-01-30T21:07:18;11.50;;;2.42;;
29162;SDS011;20331;53.144;8.208;2024-01-30T21:12:44;6.32;;;2.10;;
29162;SDS011;20331;53.144;8.208;2024-01-30T21:18:06;11.68;;;2.38;;
29162;SDS011;20331;53.144;8.208;2024-01-30T21:23:29;13.52;;;2.13;;
29162;SDS011;20331;53.144;8.208;2024-01-30T21:28:51;10.88;;;2.10;;
29162;SDS011;20331;53.144;8.208;2024-01-30T21:34:13;9.60;;;1.83;;
29162;SDS011;20331;53.144;8.208;2024-01-30T21:39:35;11.02;;;1.70;;
29162;SDS011;20331;53.144;8.208;2024-01-30T21:44:58;4.75;;;1.50;;
29162;SDS011;20331;53.144;8.208;2024-01-30T21:50:20;8.98;;;1.85;;
29162;SDS011;20331;53.144;8.208;2024-01-30T21:55:42;12.18;;;2.20;;
29162;SDS011;20331;53.144;8.208;2024-01-30T22:01:04;7.80;;;1.67;;
29162;SDS011;20331;53.144;8.208;2024-01-30T22:06:26;10.15;;;1.60;;
29162;SDS011;20331;53.144;8.208;2024-01-30T22:11:48;10.25;;;1.60;;
29162;SDS011;20331;53.144;8.208;2024-01-30T22:17:10;12.98;;;1.88;;
29162;SDS011;20331;53.144;8.208;2024-01-30T22:22:32;9.25;;;1.58;;
29162;SDS011;20331;53.144;8.208;2024-01-30T22:27:55;12.18;;;1.70;;
29162;SDS011;20331;53.144;8.208;2024-01-30T22:33:16;12.73;;;1.85;;
29162;SDS011;20331;53.144;8.208;2024-01-30T22:38:47;4.95;;;1.15;;
29162;SDS011;20331;53.144;8.208;2024-01-30T22:44:09;8.00;;;1.48;;
29162;SDS011;20331;53.144;8.208;2024-01-30T22:49:30;17.20;;;2.05;;
29162;SDS011;20331;53.144;8.208;2024-01-30T22:54:52;6.72;;;1.02;;
29162;SDS011;20331;53.144;8.208;2024-01-30T23:00:14;4.60;;;0.70;;
29162;SDS011;20331;53.144;8.208;2024-01-30T23:05:36;5.93;;;0.77;;
29162;SDS011;20331;53.144;8.208;2024-01-30T23:10:58;5.28;;;0.82;;
29162;SDS011;20331;53.144;8.208;2024-01-30T23:16:20;4.18;;;1.00;;
29162;SDS011;20331;53.144;8.208;2024-01-30T23:21:42;7.55;;;1.23;;
29162;SDS011;20331;53.144;8.208;2024-01-30T23:27:03;1.67;;;0.50;;
29162;SDS011;20331;53.144;8.208;2024-01-30T23:32:25;5.47;;;0.70;;
29162;SDS011;20331;53.144;8.208;2024-01-30T23:37:59;4.90;;;0.60;;
29162;SDS011;20331;53.144;8.208;2024-01-30T23:43:21;5.07;;;0.60;;
29162;SDS011;20331;53.144;8.208;2024-01-30T23:48:45;3.97;;;0.70;;
29162;SDS011;20331;53.144;8.208;2024-01-30T23:54:08;4.38;;;0.70;;
29162;SDS011;20331;53.144;8.208;2024-01-30T23:59:29;2.17;;;0.47;;
